createdAt,value
2023-02-13T00:00:15.383Z,3.41
2023-02-13T00:02:41.829Z,3.51
2023-02-13T00:05:08.403Z,3.38
2023-02-13T00:07:34.892Z,3.04
2023-02-13T00:10:01.645Z,3.03
2023-02-13T00:12:28.083Z,3.12
2023-02-13T00:14:54.786Z,3.12
2023-02-13T00:17:21.275Z,2.95
2023-02-13T00:19:47.731Z,2.88
2023-02-13T00:22:16.528Z,2.86
2023-02-13T00:24:43.533Z,2.81
2023-02-13T00:27:10.070Z,2.80
2023-02-13T00:29:36.520Z,2.87
2023-02-13T00:32:03.215Z,2.90
2023-02-13T00:34:29.696Z,2.65
2023-02-13T00:36:56.112Z,2.45
2023-02-13T00:39:22.573Z,2.34
2023-02-13T00:41:48.951Z,2.27
2023-02-13T00:44:15.504Z,2.28
2023-02-13T00:46:41.971Z,2.39
2023-02-13T00:49:08.672Z,2.24
2023-02-13T00:51:35.121Z,2.23
2023-02-13T00:54:01.619Z,2.04
2023-02-13T00:56:28.212Z,2.16
2023-02-13T00:58:54.752Z,2.26
2023-02-13T01:01:21.210Z,2.40
2023-02-13T01:03:47.670Z,2.44
2023-02-13T01:06:14.166Z,2.37
2023-02-13T01:08:41.032Z,2.29
2023-02-13T01:11:07.922Z,2.24
2023-02-13T01:13:34.483Z,2.22
2023-02-13T01:16:01.056Z,2.11
2023-02-13T01:18:27.923Z,2.09
2023-02-13T01:21:04.191Z,2.01
2023-02-13T01:23:35.850Z,2.10
2023-02-13T01:26:07.534Z,2.00
2023-02-13T01:28:35.117Z,2.00
2023-02-13T01:31:02.672Z,2.05
2023-02-13T01:33:29.818Z,1.99
2023-02-13T01:35:56.365Z,1.88
2023-02-13T01:38:22.866Z,1.78
2023-02-13T01:40:51.361Z,1.86
2023-02-13T01:43:18.351Z,1.79
2023-02-13T01:45:48.964Z,1.77
2023-02-13T01:48:27.268Z,1.87
2023-02-13T01:51:00.932Z,1.94
2023-02-13T01:53:39.426Z,1.88
2023-02-13T01:56:19.335Z,1.86
2023-02-13T01:58:50.286Z,1.93
2023-02-13T02:01:17.545Z,1.96
2023-02-13T02:03:52.667Z,1.95
2023-02-13T02:06:35.981Z,1.85
2023-02-13T02:09:10.200Z,1.95
2023-02-13T02:11:44.890Z,1.99
2023-02-13T02:14:11.359Z,1.96
2023-02-13T02:16:37.765Z,2.03
2023-02-13T02:19:11.941Z,2.00
2023-02-13T02:22:12.360Z,1.91
2023-02-13T02:24:57.274Z,1.90
2023-02-13T02:28:04.697Z,1.77
2023-02-13T02:30:42.070Z,1.80
2023-02-13T02:33:38.409Z,1.78
2023-02-13T02:36:30.709Z,1.69
2023-02-13T02:39:12.519Z,1.63
2023-02-13T02:41:45.137Z,1.63
2023-02-13T02:44:37.128Z,1.55
2023-02-13T02:47:34.068Z,1.46
2023-02-13T02:50:39.623Z,1.28
2023-02-13T02:53:33.249Z,1.32
2023-02-13T02:56:23.353Z,1.44
2023-02-13T02:59:20.649Z,1.54
2023-02-13T03:02:06.421Z,1.54
2023-02-13T03:04:57.178Z,1.41
2023-02-13T03:07:23.612Z,1.38
2023-02-13T03:10:14.415Z,1.43
2023-02-13T03:13:11.406Z,1.51
2023-02-13T03:16:02.492Z,1.46
2023-02-13T03:18:56.326Z,1.42
2023-02-13T03:21:47.416Z,1.36
2023-02-13T03:24:25.989Z,1.28
2023-02-13T03:27:08.937Z,1.27
2023-02-13T03:30:08.805Z,1.36
2023-02-13T03:32:50.140Z,1.24
2023-02-13T03:35:45.787Z,1.32
2023-02-13T03:38:21.295Z,1.27
2023-02-13T03:41:18.823Z,1.39
2023-02-13T03:44:04.677Z,1.33
2023-02-13T03:46:36.249Z,1.33
2023-02-13T03:49:23.356Z,1.20
2023-02-13T03:52:02.191Z,1.23
2023-02-13T03:55:08.726Z,1.15
2023-02-13T03:57:58.630Z,1.22
2023-02-13T04:00:30.358Z,1.28
2023-02-13T04:03:14.044Z,1.31
2023-02-13T04:05:45.167Z,1.37
2023-02-13T04:08:11.923Z,1.36
2023-02-13T04:10:50.253Z,1.25
2023-02-13T04:13:32.425Z,1.23
2023-02-13T04:16:23.561Z,1.09
2023-02-13T04:18:52.490Z,0.74
2023-02-13T04:21:18.946Z,0.63
2023-02-13T04:23:45.377Z,0.59
2023-02-13T04:26:17.933Z,0.60
2023-02-13T04:28:44.400Z,0.73
2023-02-13T04:31:10.911Z,0.81
2023-02-13T04:33:37.434Z,0.71
2023-02-13T04:36:04.222Z,0.73
2023-02-13T04:38:30.686Z,0.88
2023-02-13T04:40:57.660Z,0.83
2023-02-13T04:43:25.317Z,0.65
2023-02-13T04:45:52.328Z,0.66
2023-02-13T04:48:18.744Z,0.67
2023-02-13T04:50:45.211Z,0.72
2023-02-13T04:53:11.703Z,0.72
2023-02-13T04:55:38.107Z,0.91
2023-02-13T04:58:04.526Z,1.02
2023-02-13T05:00:31.042Z,1.00
2023-02-13T05:03:08.730Z,1.00
2023-02-13T05:05:35.827Z,1.11
2023-02-13T05:08:02.285Z,1.17
2023-02-13T05:10:29.342Z,1.11
2023-02-13T05:12:56.044Z,1.04
2023-02-13T05:15:23.555Z,1.01
2023-02-13T05:17:50.408Z,1.12
2023-02-13T05:20:16.940Z,1.19
2023-02-13T05:23:07.233Z,1.12
2023-02-13T05:25:35.189Z,0.95
2023-02-13T05:28:02.137Z,0.92
2023-02-13T05:30:28.577Z,0.92
2023-02-13T05:32:55.072Z,0.89
2023-02-13T05:35:22.751Z,0.71
2023-02-13T05:37:49.260Z,0.63
2023-02-13T05:40:15.757Z,0.62
2023-02-13T05:42:42.804Z,0.71
2023-02-13T05:45:10.425Z,0.70
2023-02-13T05:47:36.901Z,0.65
2023-02-13T05:50:03.441Z,0.79
2023-02-13T05:52:29.867Z,0.79
2023-02-13T05:54:56.250Z,0.89
2023-02-13T05:57:22.687Z,0.91
2023-02-13T05:59:49.079Z,1.06
2023-02-13T06:02:15.539Z,1.12
2023-02-13T06:04:41.963Z,1.13
2023-02-13T06:07:08.371Z,1.06
2023-02-13T06:09:34.837Z,1.07
2023-02-13T06:12:01.262Z,1.09
2023-02-13T06:14:27.670Z,1.11
2023-02-13T06:16:54.199Z,1.03
2023-02-13T06:19:20.741Z,1.03
2023-02-13T06:21:47.131Z,1.01
2023-02-13T06:24:15.951Z,0.88
2023-02-13T06:26:42.375Z,0.77
2023-02-13T06:29:09.387Z,0.82
2023-02-13T06:31:36.026Z,0.82
2023-02-13T06:34:02.796Z,0.91
2023-02-13T06:36:29.443Z,0.89
2023-02-13T06:38:55.896Z,0.87
2023-02-13T06:41:22.451Z,0.83
2023-02-13T06:43:48.887Z,0.86
2023-02-13T06:46:15.356Z,0.87
2023-02-13T06:48:41.802Z,1.00
2023-02-13T06:51:08.277Z,1.16
2023-02-13T06:53:34.714Z,1.09
2023-02-13T06:56:04.805Z,1.03
2023-02-13T06:58:31.225Z,1.12
2023-02-13T07:00:58.059Z,1.17
2023-02-13T07:03:24.640Z,1.13
2023-02-13T07:06:01.530Z,1.09
2023-02-13T07:08:28.010Z,1.27
2023-02-13T07:11:23.496Z,1.49
2023-02-13T07:13:50.074Z,1.71
2023-02-13T07:16:16.873Z,1.83
2023-02-13T07:18:43.313Z,1.84
2023-02-13T07:21:09.799Z,2.02
2023-02-13T07:23:36.465Z,2.08
2023-02-13T07:26:03.585Z,2.11
2023-02-13T07:28:30.359Z,1.91
2023-02-13T07:30:57.378Z,1.90
2023-02-13T07:33:24.857Z,1.91
2023-02-13T07:35:52.400Z,1.96
2023-02-13T07:38:19.319Z,2.17
2023-02-13T07:40:45.767Z,2.22
2023-02-13T07:43:13.657Z,2.28
2023-02-13T07:45:40.098Z,2.42
2023-02-13T07:48:06.605Z,2.61
2023-02-13T07:50:33.102Z,2.65
2023-02-13T07:53:05.434Z,2.75
2023-02-13T07:55:32.659Z,2.88
2023-02-13T07:58:00.943Z,2.97
2023-02-13T08:00:27.591Z,3.06
2023-02-13T08:02:54.000Z,3.16
2023-02-13T08:05:20.429Z,3.13
2023-02-13T08:07:46.830Z,3.10
2023-02-13T08:10:32.665Z,3.22
2023-02-13T08:12:59.559Z,3.37
2023-02-13T08:15:26.174Z,3.40
2023-02-13T08:17:52.648Z,3.39
2023-02-13T08:20:19.290Z,3.45
2023-02-13T08:22:45.737Z,3.50
2023-02-13T08:25:13.007Z,3.55
2023-02-13T08:27:39.439Z,3.63
2023-02-13T08:30:11.739Z,3.73
2023-02-13T08:32:53.008Z,3.82
2023-02-13T08:35:20.776Z,3.97
2023-02-13T08:37:47.701Z,4.01
2023-02-13T08:40:14.526Z,4.03
2023-02-13T08:42:40.995Z,4.04
2023-02-13T08:45:09.060Z,4.03
2023-02-13T08:47:35.453Z,4.00
2023-02-13T08:50:01.866Z,4.05
2023-02-13T08:52:29.072Z,4.11
2023-02-13T08:54:55.467Z,4.19
2023-02-13T08:57:21.839Z,4.29
2023-02-13T08:59:48.232Z,4.37
2023-02-13T09:02:14.924Z,4.45
2023-02-13T09:04:41.389Z,4.50
2023-02-13T09:07:07.844Z,4.50
2023-02-13T09:09:34.316Z,4.58
2023-02-13T09:12:01.038Z,4.68
2023-02-13T09:14:27.581Z,4.66
2023-02-13T09:16:54.138Z,4.68
2023-02-13T09:19:20.654Z,4.73
2023-02-13T09:21:47.079Z,4.81
2023-02-13T09:24:13.474Z,4.95
2023-02-13T09:26:39.964Z,5.03
2023-02-13T09:29:06.568Z,5.12
2023-02-13T09:31:33.104Z,5.24
2023-02-13T09:34:00.655Z,5.37
2023-02-13T09:36:27.099Z,5.48
2023-02-13T09:38:56.505Z,5.58
2023-02-13T09:41:29.539Z,5.66
2023-02-13T09:44:05.976Z,5.73
2023-02-13T09:46:40.399Z,5.85
2023-02-13T09:49:15.368Z,5.91
2023-02-13T09:51:44.074Z,5.94
2023-02-13T09:54:15.598Z,6.01
2023-02-13T09:57:00.605Z,6.09
2023-02-13T09:59:49.202Z,6.22
2023-02-13T10:02:30.990Z,6.38
2023-02-13T10:05:06.601Z,6.54
2023-02-13T10:07:54.333Z,6.63
2023-02-13T10:10:53.797Z,6.78
2023-02-13T10:13:27.971Z,6.86
2023-02-13T10:16:02.812Z,6.99
2023-02-13T10:18:48.396Z,7.08
2023-02-13T10:21:18.410Z,7.25
2023-02-13T10:23:59.923Z,7.45
2023-02-13T10:26:42.941Z,7.50
2023-02-13T10:29:39.706Z,7.67
2023-02-13T10:32:10.699Z,7.90
2023-02-13T10:34:43.644Z,7.85
2023-02-13T10:37:18.683Z,7.97
2023-02-13T10:39:50.573Z,8.06
2023-02-13T10:42:38.049Z,8.16
2023-02-13T10:45:20.645Z,8.33
2023-02-13T10:47:56.154Z,8.64
2023-02-13T10:50:35.758Z,8.83
2023-02-13T10:53:23.669Z,8.99
2023-02-13T10:55:59.595Z,8.92
2023-02-13T10:58:33.074Z,8.91
2023-02-13T11:01:24.815Z,8.98
2023-02-13T11:04:01.688Z,9.15
2023-02-13T11:06:30.176Z,9.21
2023-02-13T11:08:56.689Z,9.17
2023-02-13T11:11:35.478Z,9.26
2023-02-13T11:14:21.683Z,9.36
2023-02-13T11:16:48.101Z,9.35
2023-02-13T11:19:22.326Z,9.42
2023-02-13T11:21:54.418Z,9.62
2023-02-13T11:24:24.483Z,9.36
2023-02-13T11:26:54.924Z,9.30
2023-02-13T11:29:27.951Z,9.42
2023-02-13T11:32:06.752Z,9.39
2023-02-13T11:34:35.014Z,9.52
2023-02-13T11:37:28.534Z,9.61
2023-02-13T11:39:57.846Z,9.60
2023-02-13T11:42:31.421Z,9.55
2023-02-13T11:45:04.540Z,9.50
2023-02-13T11:47:35.882Z,9.63
2023-02-13T11:50:04.707Z,9.74
2023-02-13T11:52:34.550Z,9.93
2023-02-13T11:55:23.771Z,10.04
2023-02-13T11:58:02.458Z,10.16
2023-02-13T12:00:30.973Z,10.19
2023-02-13T12:02:57.621Z,10.19
2023-02-13T12:05:26.473Z,10.34
2023-02-13T12:07:58.723Z,10.26
2023-02-13T12:10:27.796Z,10.24
2023-02-13T12:13:33.239Z,10.20
2023-02-13T12:16:04.109Z,10.32
2023-02-13T12:18:36.143Z,10.44
2023-02-13T12:21:22.400Z,10.30
2023-02-13T12:23:54.633Z,10.26
2023-02-13T12:26:24.315Z,10.36
2023-02-13T12:29:23.132Z,10.38
2023-02-13T12:32:17.670Z,10.50
2023-02-13T12:35:21.341Z,10.50
2023-02-13T12:37:55.395Z,10.45
2023-02-13T12:40:41.513Z,10.63
2023-02-13T12:43:33.433Z,10.62
2023-02-13T12:46:21.968Z,10.60
2023-02-13T12:49:05.772Z,10.60
2023-02-13T12:52:07.641Z,10.67
2023-02-13T12:55:05.883Z,10.63
2023-02-13T12:57:41.262Z,10.75
2023-02-13T13:00:16.767Z,10.77
2023-02-13T13:02:49.252Z,10.62
2023-02-13T13:05:41.008Z,10.58
2023-02-13T13:08:39.052Z,10.80
2023-02-13T13:11:27.103Z,10.97
2023-02-13T13:14:00.989Z,11.03
2023-02-13T13:16:34.393Z,11.03
2023-02-13T13:19:40.471Z,11.07
2023-02-13T13:22:30.468Z,11.08
2023-02-13T13:25:03.259Z,11.01
2023-02-13T13:27:35.994Z,10.99
2023-02-13T13:30:21.876Z,11.01
2023-02-13T13:32:54.555Z,11.01
2023-02-13T13:35:21.987Z,10.97
2023-02-13T13:38:04.020Z,10.96
2023-02-13T13:40:49.754Z,10.88
2023-02-13T13:43:45.717Z,10.89
2023-02-13T13:46:21.871Z,10.97
2023-02-13T13:48:48.447Z,10.97
2023-02-13T13:51:17.960Z,11.04
2023-02-13T13:54:07.855Z,11.09
2023-02-13T13:56:52.794Z,11.13
2023-02-13T13:59:40.126Z,11.12
2023-02-13T14:02:18.775Z,11.03
2023-02-13T14:05:22.440Z,11.01
2023-02-13T14:07:56.824Z,10.95
2023-02-13T14:10:26.292Z,10.87
2023-02-13T14:12:55.677Z,10.84
2023-02-13T14:15:34.429Z,10.87
2023-02-13T14:18:25.401Z,10.79
2023-02-13T14:20:56.023Z,10.87
2023-02-13T14:23:53.270Z,11.06
2023-02-13T14:26:31.655Z,11.12
2023-02-13T14:29:02.114Z,11.06
2023-02-13T14:31:39.145Z,11.05
2023-02-13T14:34:18.354Z,10.91
2023-02-13T14:37:01.131Z,10.84
2023-02-13T14:39:35.577Z,10.91
2023-02-13T14:42:04.417Z,10.98
2023-02-13T14:44:49.413Z,11.01
2023-02-13T14:47:31.082Z,10.95
2023-02-13T14:50:01.680Z,10.93
2023-02-13T14:52:38.712Z,10.94
2023-02-13T14:55:13.560Z,10.91
2023-02-13T14:57:54.163Z,10.90
2023-02-13T15:00:25.279Z,10.86
2023-02-13T15:02:59.557Z,10.81
2023-02-13T15:05:33.640Z,10.76
2023-02-13T15:08:07.155Z,10.74
2023-02-13T15:10:47.000Z,10.71
2023-02-13T15:13:20.586Z,10.70
2023-02-13T15:16:00.619Z,10.68
2023-02-13T15:18:42.752Z,10.71
2023-02-13T15:21:16.981Z,10.64
2023-02-13T15:23:44.466Z,10.59
2023-02-13T15:26:19.659Z,10.50
2023-02-13T15:29:02.024Z,10.43
2023-02-13T15:31:35.568Z,10.44
2023-02-13T15:34:02.039Z,10.41
2023-02-13T15:36:40.955Z,10.39
2023-02-13T15:39:09.816Z,10.38
2023-02-13T15:41:43.707Z,10.35
2023-02-13T15:44:18.192Z,10.32
2023-02-13T15:46:48.176Z,10.31
2023-02-13T15:49:17.846Z,10.30
2023-02-13T15:51:45.319Z,10.25
2023-02-13T15:54:28.117Z,10.24
2023-02-13T15:56:57.776Z,10.18
2023-02-13T15:59:31.399Z,10.12
2023-02-13T16:02:00.117Z,10.14
2023-02-13T16:04:28.025Z,10.10
2023-02-13T16:06:56.699Z,10.01
2023-02-13T16:09:27.254Z,9.95
2023-02-13T16:11:59.763Z,9.95
2023-02-13T16:14:29.416Z,9.94
2023-02-13T16:17:04.549Z,9.92
2023-02-13T16:19:34.005Z,9.88
2023-02-13T16:22:06.876Z,9.86
2023-02-13T16:24:33.439Z,9.82
2023-02-13T16:27:00.722Z,9.76
2023-02-13T16:29:28.865Z,9.67
2023-02-13T16:32:10.615Z,9.61
2023-02-13T16:34:44.203Z,9.56
2023-02-13T16:37:30.439Z,9.51
2023-02-13T16:39:57.384Z,9.45
2023-02-13T16:42:23.952Z,9.41
2023-02-13T16:44:50.471Z,9.32
2023-02-13T16:47:35.217Z,9.23
2023-02-13T16:50:04.850Z,9.15
2023-02-13T16:52:37.696Z,9.08
2023-02-13T16:55:13.877Z,9.03
2023-02-13T16:57:46.876Z,8.96
2023-02-13T17:00:32.055Z,8.87
2023-02-13T17:03:05.014Z,8.81
2023-02-13T17:05:35.477Z,8.71
2023-02-13T17:08:10.648Z,8.63
2023-02-13T17:10:40.176Z,8.54
2023-02-13T17:13:11.368Z,8.47
2023-02-13T17:15:47.746Z,8.42
2023-02-13T17:18:14.441Z,8.32
2023-02-13T17:20:42.844Z,8.27
2023-02-13T17:23:17.630Z,8.23
2023-02-13T17:25:46.169Z,8.14
2023-02-13T17:28:14.311Z,8.08
2023-02-13T17:30:41.948Z,8.09
2023-02-13T17:33:29.109Z,8.06
2023-02-13T17:35:55.759Z,7.99
2023-02-13T17:38:22.226Z,7.87
2023-02-13T17:40:49.038Z,7.80
2023-02-13T17:43:17.273Z,7.93
2023-02-13T17:45:45.068Z,7.81
2023-02-13T17:48:11.499Z,7.75
2023-02-13T17:50:38.465Z,7.63
2023-02-13T17:53:07.795Z,7.52
2023-02-13T17:55:35.393Z,7.41
2023-02-13T17:58:02.736Z,7.31
2023-02-13T18:00:31.548Z,7.36
2023-02-13T18:02:59.382Z,7.40
2023-02-13T18:05:26.237Z,7.37
2023-02-13T18:07:52.670Z,7.31
2023-02-13T18:10:27.674Z,7.28
2023-02-13T18:12:56.617Z,7.19
2023-02-13T18:15:23.140Z,7.14
2023-02-13T18:17:49.809Z,7.12
2023-02-13T18:20:23.141Z,7.04
2023-02-13T18:22:52.445Z,6.99
2023-02-13T18:25:20.679Z,6.96
2023-02-13T18:27:47.501Z,6.94
2023-02-13T18:30:16.026Z,6.90
2023-02-13T18:32:42.433Z,6.86
2023-02-13T18:35:09.161Z,6.83
2023-02-13T18:37:35.848Z,6.71
2023-02-13T18:40:02.325Z,6.59
2023-02-13T18:42:28.706Z,6.51
2023-02-13T18:44:55.094Z,6.41
2023-02-13T18:47:21.502Z,6.39
2023-02-13T18:49:47.882Z,6.37
2023-02-13T18:52:14.424Z,6.35
2023-02-13T18:54:40.928Z,6.31
2023-02-13T18:57:07.320Z,6.24
2023-02-13T18:59:33.747Z,6.22
2023-02-13T19:02:01.251Z,6.21
2023-02-13T19:04:29.029Z,6.07
2023-02-13T19:06:55.527Z,6.10
2023-02-13T19:09:21.910Z,6.11
2023-02-13T19:11:48.543Z,6.04
2023-02-13T19:14:15.378Z,6.00
2023-02-13T19:16:42.135Z,5.84
2023-02-13T19:19:08.810Z,5.52
2023-02-13T19:21:37.036Z,5.42
2023-02-13T19:24:06.414Z,5.34
2023-02-13T19:26:32.795Z,5.29
2023-02-13T19:28:59.411Z,5.44
2023-02-13T19:31:31.502Z,5.43
2023-02-13T19:34:00.433Z,5.32
2023-02-13T19:36:29.638Z,5.40
2023-02-13T19:38:58.171Z,5.31
2023-02-13T19:41:25.253Z,5.31
2023-02-13T19:43:53.500Z,5.14
2023-02-13T19:46:22.891Z,4.98
2023-02-13T19:48:50.126Z,5.01
2023-02-13T19:51:19.058Z,5.06
2023-02-13T19:53:45.947Z,5.05
2023-02-13T19:56:14.851Z,5.00
2023-02-13T19:58:42.555Z,5.05
2023-02-13T20:01:15.670Z,4.92
2023-02-13T20:03:42.827Z,4.96
2023-02-13T20:06:15.032Z,4.86
2023-02-13T20:08:43.024Z,4.79
2023-02-13T20:11:11.223Z,4.81
2023-02-13T20:13:37.971Z,4.75
2023-02-13T20:16:06.503Z,4.78
2023-02-13T20:18:34.645Z,4.86
2023-02-13T20:21:07.810Z,4.80
2023-02-13T20:23:34.555Z,4.69
2023-02-13T20:26:05.668Z,4.66
2023-02-13T20:28:32.202Z,4.63
2023-02-13T20:31:00.535Z,4.59
2023-02-13T20:33:27.352Z,4.57
2023-02-13T20:35:53.840Z,4.52
2023-02-13T20:38:20.275Z,4.46
2023-02-13T20:40:46.694Z,4.29
2023-02-13T20:43:13.087Z,4.05
2023-02-13T20:45:39.569Z,3.97
2023-02-13T20:48:05.968Z,3.94
2023-02-13T20:50:32.363Z,3.81
2023-02-13T20:52:58.799Z,3.71
2023-02-13T20:55:25.195Z,3.61
2023-02-13T20:57:51.603Z,3.63
2023-02-13T21:00:18.104Z,3.56
2023-02-13T21:02:44.573Z,3.59
2023-02-13T21:05:11.012Z,3.66
2023-02-13T21:07:37.611Z,3.63
2023-02-13T21:10:04.340Z,3.50
2023-02-13T21:12:30.756Z,3.40
2023-02-13T21:14:57.140Z,3.40
2023-02-13T21:17:23.558Z,3.32
2023-02-13T21:19:50.100Z,3.22
2023-02-13T21:22:16.548Z,3.10
2023-02-13T21:24:43.617Z,3.12
2023-02-13T21:27:10.794Z,3.26
2023-02-13T21:29:38.168Z,3.20
2023-02-13T21:32:04.764Z,3.25
2023-02-13T21:34:31.177Z,3.54
2023-02-13T21:36:57.674Z,3.62
2023-02-13T21:39:24.204Z,3.53
2023-02-13T21:41:50.632Z,3.52
2023-02-13T21:44:17.176Z,3.33
2023-02-13T21:46:44.827Z,3.20
2023-02-13T21:49:13.971Z,3.14
2023-02-13T21:51:40.623Z,3.12
2023-02-13T21:54:07.209Z,3.30
2023-02-13T21:56:36.282Z,3.51
2023-02-13T21:59:03.969Z,3.59
2023-02-13T22:01:31.692Z,3.49
2023-02-13T22:04:01.272Z,3.45
2023-02-13T22:06:30.238Z,3.47
2023-02-13T22:09:01.931Z,3.40
2023-02-13T22:11:28.532Z,3.30
2023-02-13T22:13:57.104Z,3.24
2023-02-13T22:16:24.238Z,3.05
2023-02-13T22:18:50.916Z,2.96
2023-02-13T22:21:19.419Z,3.00
2023-02-13T22:23:46.981Z,3.12
2023-02-13T22:26:19.069Z,3.27
2023-02-13T22:28:45.962Z,3.20
2023-02-13T22:31:13.803Z,3.24
2023-02-13T22:33:40.835Z,3.13
2023-02-13T22:36:07.837Z,2.91
2023-02-13T22:38:40.732Z,2.66
2023-02-13T22:41:09.860Z,2.56
2023-02-13T22:43:37.444Z,2.72
2023-02-13T22:46:06.074Z,2.77
2023-02-13T22:48:34.863Z,2.84
2023-02-13T22:51:10.964Z,2.88
2023-02-13T22:53:38.129Z,3.01
2023-02-13T22:56:07.458Z,2.99
2023-02-13T22:58:34.570Z,3.07
2023-02-13T23:01:01.796Z,3.17
2023-02-13T23:03:31.318Z,3.08
2023-02-13T23:05:57.692Z,3.08
2023-02-13T23:08:24.130Z,3.08
2023-02-13T23:11:08.904Z,2.99
2023-02-13T23:13:35.364Z,2.86
2023-02-13T23:16:01.897Z,2.90
2023-02-13T23:18:28.420Z,2.89
2023-02-13T23:20:54.872Z,2.94
2023-02-13T23:23:22.277Z,2.98
2023-02-13T23:25:48.658Z,2.90
2023-02-13T23:28:15.088Z,2.95
2023-02-13T23:30:41.656Z,2.92
2023-02-13T23:33:08.177Z,2.81
2023-02-13T23:35:34.602Z,2.55
2023-02-13T23:38:00.997Z,2.56
2023-02-13T23:40:27.416Z,2.62
2023-02-13T23:42:53.791Z,2.70
2023-02-13T23:45:20.191Z,2.70
2023-02-13T23:47:46.747Z,2.47
2023-02-13T23:50:13.202Z,2.28
2023-02-13T23:52:39.594Z,2.42
2023-02-13T23:55:06.379Z,2.44
2023-02-13T23:57:32.850Z,2.51
2023-02-13T23:59:59.269Z,2.44
